sensor_id;sensor_type;location;lat;lon;timestamp;pressure;altitude;pressure_sealevel;temperature;humidity
6393;BME280;3229;42.674;23.282;2022-10-26T00:00:14;95138.72;;;17.00;83.54
6393;BME280;3229;42.674;23.282;2022-10-26T00:02:42;95140.22;;;16.94;83.57
6393;BME280;3229;42.674;23.282;2022-10-26T00:05:09;95136.66;;;16.95;83.62
6393;BME280;3229;42.674;23.282;2022-10-26T00:07:35;95130.69;;;16.95;83.49
6393;BME280;3229;42.674;23.282;2022-10-26T00:10:03;95130.84;;;16.93;83.56
6393;BME280;3229;42.674;23.282;2022-10-26T00:12:30;95131.81;;;16.92;83.42
6393;BME280;3229;42.674;23.282;2022-10-26T00:14:56;95129.72;;;16.88;83.42
6393;BME280;3229;42.674;23.282;2022-10-26T00:17:25;95137.47;;;16.88;83.60
6393;BME280;3229;42.674;23.282;2022-10-26T00:19:52;95132.78;;;16.83;83.45
6393;BME280;3229;42.674;23.282;2022-10-26T00:22:19;95135.22;;;16.85;83.54
6393;BME280;3229;42.674;23.282;2022-10-26T00:24:46;95137.81;;;16.85;83.43
6393;BME280;3229;42.674;23.282;2022-10-26T00:27:13;95132.97;;;16.82;83.34
6393;BME280;3229;42.674;23.282;2022-10-26T00:29:40;95081.69;;;16.46;83.40
6393;BME280;3229;42.674;23.282;2022-10-26T00:32:07;95130.41;;;16.73;83.46
6393;BME280;3229;42.674;23.282;2022-10-26T00:34:35;95145.41;;;16.78;83.44
6393;BME280;3229;42.674;23.282;2022-10-26T00:37:02;95141.22;;;16.77;83.68
6393;BME280;3229;42.674;23.282;2022-10-26T00:39:29;95142.19;;;16.76;83.45
6393;BME280;3229;42.674;23.282;2022-10-26T00:41:56;95140.56;;;16.75;83.41
6393;BME280;3229;42.674;23.282;2022-10-26T00:44:54;95139.75;;;16.74;83.49
6393;BME280;3229;42.674;23.282;2022-10-26T00:47:26;95133.28;;;16.70;83.51
6393;BME280;3229;42.674;23.282;2022-10-26T00:49:59;95126.69;;;16.68;83.49
6393;BME280;3229;42.674;23.282;2022-10-26T00:52:28;95128.59;;;16.66;83.47
6393;BME280;3229;42.674;23.282;2022-10-26T00:54:55;95124.59;;;16.63;83.39
6393;BME280;3229;42.674;23.282;2022-10-26T00:57:22;95133.44;;;16.69;83.26
6393;BME280;3229;42.674;23.282;2022-10-26T00:59:50;95125.06;;;16.67;83.43
6393;BME280;3229;42.674;23.282;2022-10-26T01:02:20;95128.47;;;16.67;83.37
6393;BME280;3229;42.674;23.282;2022-10-26T01:04:47;95122.63;;;16.65;83.30
6393;BME280;3229;42.674;23.282;2022-10-26T01:07:16;95121.03;;;16.64;83.29
6393;BME280;3229;42.674;23.282;2022-10-26T01:09:44;95124.59;;;16.63;83.32
6393;BME280;3229;42.674;23.282;2022-10-26T01:12:11;95119.56;;;16.62;83.27
6393;BME280;3229;42.674;23.282;2022-10-26T01:14:38;95116.34;;;16.60;83.17
6393;BME280;3229;42.674;23.282;2022-10-26T01:17:13;95115.06;;;16.55;83.22
6393;BME280;3229;42.674;23.282;2022-10-26T01:23:07;95116.84;;;16.55;83.20
6393;BME280;3229;42.674;23.282;2022-10-26T01:26:05;95123.00;;;16.54;83.17
6393;BME280;3229;42.674;23.282;2022-10-26T01:28:51;95124.91;;;16.52;83.04
6393;BME280;3229;42.674;23.282;2022-10-26T01:31:28;95117.84;;;16.46;83.00
6393;BME280;3229;42.674;23.282;2022-10-26T01:34:00;95127.00;;;16.48;82.78
6393;BME280;3229;42.674;23.282;2022-10-26T01:36:31;95124.13;;;16.43;82.97
6393;BME280;3229;42.674;23.282;2022-10-26T01:39:05;95120.41;;;16.46;82.92
6393;BME280;3229;42.674;23.282;2022-10-26T01:41:37;95092.03;;;16.29;82.74
6393;BME280;3229;42.674;23.282;2022-10-26T01:44:09;95096.72;;;16.34;82.91
6393;BME280;3229;42.674;23.282;2022-10-26T01:46:42;95107.19;;;16.41;82.85
6393;BME280;3229;42.674;23.282;2022-10-26T01:49:12;95098.31;;;16.35;82.78
6393;BME280;3229;42.674;23.282;2022-10-26T01:51:42;95107.34;;;16.39;82.79
6393;BME280;3229;42.674;23.282;2022-10-26T01:54:10;95093.31;;;16.34;82.80
6393;BME280;3229;42.674;23.282;2022-10-26T01:56:39;95078.50;;;16.19;82.70
6393;BME280;3229;42.674;23.282;2022-10-26T01:59:20;95101.06;;;16.34;82.60
6393;BME280;3229;42.674;23.282;2022-10-26T02:02:24;95098.00;;;16.30;82.47
6393;BME280;3229;42.674;23.282;2022-10-26T02:05:08;95086.56;;;16.16;82.49
6393;BME280;3229;42.674;23.282;2022-10-26T02:07:46;95101.69;;;16.27;82.55
6393;BME280;3229;42.674;23.282;2022-10-26T02:10:23;95104.44;;;16.26;82.55
6393;BME280;3229;42.674;23.282;2022-10-26T02:12:59;95088.16;;;16.17;82.58
6393;BME280;3229;42.674;23.282;2022-10-26T02:15:33;95104.13;;;16.21;82.48
6393;BME280;3229;42.674;23.282;2022-10-26T02:18:06;95107.53;;;16.21;82.36
6393;BME280;3229;42.674;23.282;2022-10-26T02:20:41;95116.38;;;16.19;82.33
6393;BME280;3229;42.674;23.282;2022-10-26T02:23:09;95118.97;;;16.19;82.44
6393;BME280;3229;42.674;23.282;2022-10-26T02:25:41;95114.94;;;16.16;82.49
6393;BME280;3229;42.674;23.282;2022-10-26T02:28:12;95117.53;;;16.16;82.25
6393;BME280;3229;42.674;23.282;2022-10-26T02:30:41;95116.06;;;16.14;82.28
6393;BME280;3229;42.674;23.282;2022-10-26T02:33:12;95109.47;;;16.11;82.35
6393;BME280;3229;42.674;23.282;2022-10-26T02:35:44;95121.41;;;16.12;82.23
6393;BME280;3229;42.674;23.282;2022-10-26T02:38:16;95122.38;;;16.11;82.32
6393;BME280;3229;42.674;23.282;2022-10-26T02:40:45;95126.06;;;16.09;82.21
6393;BME280;3229;42.674;23.282;2022-10-26T02:43:15;95121.88;;;16.08;82.15
6393;BME280;3229;42.674;23.282;2022-10-26T02:45:50;95120.28;;;16.07;82.25
6393;BME280;3229;42.674;23.282;2022-10-26T02:48:20;95117.03;;;16.04;82.17
6393;BME280;3229;42.674;23.282;2022-10-26T02:50:55;95124.94;;;16.03;82.30
6393;BME280;3229;42.674;23.282;2022-10-26T02:53:25;95112.66;;;15.97;82.20
6393;BME280;3229;42.674;23.282;2022-10-26T02:55:53;95117.34;;;16.01;82.26
6393;BME280;3229;42.674;23.282;2022-10-26T02:58:23;95124.44;;;15.99;82.28
6393;BME280;3229;42.674;23.282;2022-10-26T03:00:52;95130.59;;;15.98;82.24
6393;BME280;3229;42.674;23.282;2022-10-26T03:03:21;95102.38;;;15.80;82.38
6393;BME280;3229;42.674;23.282;2022-10-26T03:05:48;95105.56;;;15.83;82.39
6393;BME280;3229;42.674;23.282;2022-10-26T03:08:15;95133.78;;;15.92;82.29
6393;BME280;3229;42.674;23.282;2022-10-26T03:10:43;95139.13;;;15.91;82.47
6393;BME280;3229;42.674;23.282;2022-10-26T03:13:11;95148.78;;;15.89;82.23
6393;BME280;3229;42.674;23.282;2022-10-26T03:15:38;95147.97;;;15.88;82.33
6393;BME280;3229;42.674;23.282;2022-10-26T03:18:05;95144.25;;;15.83;82.24
6393;BME280;3229;42.674;23.282;2022-10-26T03:20:34;95152.66;;;15.85;82.15
6393;BME280;3229;42.674;23.282;2022-10-26T03:23:01;95156.19;;;15.84;82.19
6393;BME280;3229;42.674;23.282;2022-10-26T03:25:28;95164.88;;;15.83;82.20
6393;BME280;3229;42.674;23.282;2022-10-26T03:27:58;95157.78;;;15.76;82.25
6393;BME280;3229;42.674;23.282;2022-10-26T03:30:26;95165.19;;;15.79;82.24
6393;BME280;3229;42.674;23.282;2022-10-26T03:32:53;95166.16;;;15.78;82.44
6393;BME280;3229;42.674;23.282;2022-10-26T03:35:20;95150.47;;;15.64;82.46
6393;BME280;3229;42.674;23.282;2022-10-26T03:37:49;95142.09;;;15.62;82.49
6393;BME280;3229;42.674;23.282;2022-10-26T03:40:16;95162.47;;;15.73;82.35
6393;BME280;3229;42.674;23.282;2022-10-26T03:42:42;95162.59;;;15.71;82.39
6393;BME280;3229;42.674;23.282;2022-10-26T03:45:10;95168.88;;;15.69;82.31
6393;BME280;3229;42.674;23.282;2022-10-26T03:47:42;95159.84;;;15.65;82.50
6393;BME280;3229;42.674;23.282;2022-10-26T03:50:10;95165.66;;;15.67;82.34
6393;BME280;3229;42.674;23.282;2022-10-26T03:52:37;95118.34;;;15.34;82.15
6393;BME280;3229;42.674;23.282;2022-10-26T03:55:07;95153.16;;;15.54;82.51
6393;BME280;3229;42.674;23.282;2022-10-26T03:57:39;95134.47;;;15.44;82.53
6393;BME280;3229;42.674;23.282;2022-10-26T04:00:07;95161.06;;;15.52;82.74
6393;BME280;3229;42.674;23.282;2022-10-26T04:02:34;95159.00;;;15.56;82.53
6393;BME280;3229;42.674;23.282;2022-10-26T04:05:01;95165.13;;;15.55;82.56
6393;BME280;3229;42.674;23.282;2022-10-26T04:07:28;95163.66;;;15.52;82.67
6393;BME280;3229;42.674;23.282;2022-10-26T04:09:55;95169.78;;;15.51;82.60
6393;BME280;3229;42.674;23.282;2022-10-26T04:12:23;95160.44;;;15.50;82.44
6393;BME280;3229;42.674;23.282;2022-10-26T04:14:50;95163.94;;;15.49;82.56
6393;BME280;3229;42.674;23.282;2022-10-26T04:17:17;95160.06;;;15.45;82.45
6393;BME280;3229;42.674;23.282;2022-10-26T04:19:44;95173.63;;;15.47;82.38
6393;BME280;3229;42.674;23.282;2022-10-26T04:22:12;95171.06;;;15.47;82.51
6393;BME280;3229;42.674;23.282;2022-10-26T04:24:39;95169.44;;;15.46;82.43
6393;BME280;3229;42.674;23.282;2022-10-26T04:27:05;95167.00;;;15.45;82.43
6393;BME280;3229;42.674;23.282;2022-10-26T04:29:33;95168.78;;;15.44;82.56
6393;BME280;3229;42.674;23.282;2022-10-26T04:32:00;95156.19;;;15.33;82.46
6393;BME280;3229;42.674;23.282;2022-10-26T04:34:28;95166.50;;;15.41;82.57
6393;BME280;3229;42.674;23.282;2022-10-26T04:36:55;95146.34;;;15.28;82.33
6393;BME280;3229;42.674;23.282;2022-10-26T04:39:25;95176.97;;;15.40;82.47
6393;BME280;3229;42.674;23.282;2022-10-26T04:41:52;95175.38;;;15.39;82.42
6393;BME280;3229;42.674;23.282;2022-10-26T04:44:20;95177.13;;;15.38;82.62
6393;BME280;3229;42.674;23.282;2022-10-26T04:46:48;95172.44;;;15.34;82.60
6393;BME280;3229;42.674;23.282;2022-10-26T04:49:15;95181.50;;;15.38;82.61
6393;BME280;3229;42.674;23.282;2022-10-26T04:51:42;95169.53;;;15.28;82.54
6393;BME280;3229;42.674;23.282;2022-10-26T04:54:09;95177.09;;;15.30;82.63
6393;BME280;3229;42.674;23.282;2022-10-26T04:56:36;95180.31;;;15.32;82.67
6393;BME280;3229;42.674;23.282;2022-10-26T04:59:03;95141.41;;;15.09;82.50
6393;BME280;3229;42.674;23.282;2022-10-26T05:01:30;95192.75;;;15.37;82.56
6393;BME280;3229;42.674;23.282;2022-10-26T05:03:58;95140.31;;;15.12;82.51
6393;BME280;3229;42.674;23.282;2022-10-26T05:06:25;95177.59;;;15.34;82.32
6393;BME280;3229;42.674;23.282;2022-10-26T05:08:52;95150.28;;;15.15;82.53
6393;BME280;3229;42.674;23.282;2022-10-26T05:11:18;95188.59;;;15.44;82.40
6393;BME280;3229;42.674;23.282;2022-10-26T05:13:46;95130.47;;;15.07;82.38
6393;BME280;3229;42.674;23.282;2022-10-26T05:16:13;95195.69;;;15.50;82.24
6393;BME280;3229;42.674;23.282;2022-10-26T05:18:41;95190.91;;;15.55;82.24
6393;BME280;3229;42.674;23.282;2022-10-26T05:21:09;95156.03;;;15.35;82.21
6393;BME280;3229;42.674;23.282;2022-10-26T05:23:36;95141.84;;;15.30;82.03
6393;BME280;3229;42.674;23.282;2022-10-26T05:26:03;95191.44;;;15.67;82.00
6393;BME280;3229;42.674;23.282;2022-10-26T05:28:30;95191.94;;;15.70;81.97
6393;BME280;3229;42.674;23.282;2022-10-26T05:30:57;95200.66;;;15.77;81.69
6393;BME280;3229;42.674;23.282;2022-10-26T05:33:25;95204.53;;;15.82;81.73
6393;BME280;3229;42.674;23.282;2022-10-26T05:35:53;95210.84;;;15.87;81.36
6393;BME280;3229;42.674;23.282;2022-10-26T05:38:22;95204.25;;;15.93;81.39
6393;BME280;3229;42.674;23.282;2022-10-26T05:40:49;95196.97;;;15.88;81.27
6393;BME280;3229;42.674;23.282;2022-10-26T05:43:18;95171.50;;;15.77;81.23
6393;BME280;3229;42.674;23.282;2022-10-26T05:45:45;95209.59;;;16.08;81.07
6393;BME280;3229;42.674;23.282;2022-10-26T05:48:12;95207.19;;;16.14;80.99
6393;BME280;3229;42.674;23.282;2022-10-26T05:50:39;95203.00;;;16.13;80.98
6393;BME280;3229;42.674;23.282;2022-10-26T05:53:06;95207.38;;;16.21;80.91
6393;BME280;3229;42.674;23.282;2022-10-26T05:55:35;95225.78;;;16.42;80.94
6393;BME280;3229;42.674;23.282;2022-10-26T05:58:03;95225.78;;;16.50;80.81
6393;BME280;3229;42.674;23.282;2022-10-26T06:00:30;95233.69;;;16.65;80.80
6393;BME280;3229;42.674;23.282;2022-10-26T06:03:07;95231.63;;;16.77;80.84
6393;BME280;3229;42.674;23.282;2022-10-26T06:05:44;95234.19;;;16.93;80.82
6393;BME280;3229;42.674;23.282;2022-10-26T06:08:16;95242.75;;;17.10;80.89
6393;BME280;3229;42.674;23.282;2022-10-26T06:10:45;95247.69;;;17.36;81.05
6393;BME280;3229;42.674;23.282;2022-10-26T06:13:13;95219.31;;;17.59;82.30
6393;BME280;3229;42.674;23.282;2022-10-26T06:15:48;95239.09;;;18.22;84.80
6393;BME280;3229;42.674;23.282;2022-10-26T06:18:29;95191.25;;;18.56;85.95
6393;BME280;3229;42.674;23.282;2022-10-26T06:21:25;95248.22;;;19.69;86.92
6393;BME280;3229;42.674;23.282;2022-10-26T06:24:11;95249.31;;;20.47;86.69
6393;BME280;3229;42.674;23.282;2022-10-26T06:26:49;95252.97;;;21.24;85.94
6393;BME280;3229;42.674;23.282;2022-10-26T06:29:35;95247.59;;;22.01;84.79
6393;BME280;3229;42.674;23.282;2022-10-26T06:32:05;95261.84;;;22.80;83.08
6393;BME280;3229;42.674;23.282;2022-10-26T06:34:34;95221.13;;;23.25;81.53
6393;BME280;3229;42.674;23.282;2022-10-26T06:37:03;95258.66;;;24.16;79.65
6393;BME280;3229;42.674;23.282;2022-10-26T06:39:34;95259.47;;;24.86;77.69
6393;BME280;3229;42.674;23.282;2022-10-26T06:42:04;95244.88;;;25.47;75.80
6393;BME280;3229;42.674;23.282;2022-10-26T06:44:32;95249.63;;;26.12;74.50
6393;BME280;3229;42.674;23.282;2022-10-26T06:47:05;95267.69;;;26.80;72.42
6393;BME280;3229;42.674;23.282;2022-10-26T06:49:35;95271.25;;;27.39;70.57
6393;BME280;3229;42.674;23.282;2022-10-26T06:52:09;95244.84;;;27.81;68.93
6393;BME280;3229;42.674;23.282;2022-10-26T06:54:45;95265.94;;;28.50;67.51
6393;BME280;3229;42.674;23.282;2022-10-26T06:57:15;95272.56;;;28.98;65.88
6393;BME280;3229;42.674;23.282;2022-10-26T06:59:45;95276.16;;;29.42;64.37
6393;BME280;3229;42.674;23.282;2022-10-26T07:02:13;95279.38;;;29.83;62.80
6393;BME280;3229;42.674;23.282;2022-10-26T07:04:41;95276.16;;;30.20;61.54
6393;BME280;3229;42.674;23.282;2022-10-26T07:07:11;95283.41;;;30.57;60.52
6393;BME280;3229;42.674;23.282;2022-10-26T07:09:39;95271.53;;;30.81;59.11
6393;BME280;3229;42.674;23.282;2022-10-26T07:12:06;95286.38;;;31.14;58.02
6393;BME280;3229;42.674;23.282;2022-10-26T07:14:34;95286.59;;;31.40;56.71
6393;BME280;3229;42.674;23.282;2022-10-26T07:17:01;95287.00;;;31.64;56.22
6393;BME280;3229;42.674;23.282;2022-10-26T07:19:28;95293.22;;;31.85;55.57
6393;BME280;3229;42.674;23.282;2022-10-26T07:21:56;95249.00;;;31.80;54.67
6393;BME280;3229;42.674;23.282;2022-10-26T07:24:23;95277.78;;;32.19;53.89
6393;BME280;3229;42.674;23.282;2022-10-26T07:26:52;95289.78;;;32.42;52.97
6393;BME280;3229;42.674;23.282;2022-10-26T07:29:19;95291.97;;;32.60;52.53
6393;BME280;3229;42.674;23.282;2022-10-26T07:31:48;95277.41;;;32.68;51.90
6393;BME280;3229;42.674;23.282;2022-10-26T07:34:15;95293.84;;;32.85;51.38
6393;BME280;3229;42.674;23.282;2022-10-26T07:36:42;95283.03;;;32.97;50.68
6393;BME280;3229;42.674;23.282;2022-10-26T07:39:08;95287.03;;;33.05;50.07
6393;BME280;3229;42.674;23.282;2022-10-26T07:41:35;95284.09;;;33.11;49.54
6393;BME280;3229;42.674;23.282;2022-10-26T07:44:02;95285.69;;;33.17;49.20
6393;BME280;3229;42.674;23.282;2022-10-26T07:46:29;95279.31;;;33.24;49.02
6393;BME280;3229;42.674;23.282;2022-10-26T07:48:58;95282.25;;;33.27;48.40
6393;BME280;3229;42.674;23.282;2022-10-26T07:51:25;95286.22;;;33.25;48.48
6393;BME280;3229;42.674;23.282;2022-10-26T07:53:51;95281.72;;;33.10;48.79
6393;BME280;3229;42.674;23.282;2022-10-26T07:56:18;95268.41;;;32.84;49.38
6393;BME280;3229;42.674;23.282;2022-10-26T07:58:45;95279.25;;;32.57;49.32
6393;BME280;3229;42.674;23.282;2022-10-26T08:01:13;95259.75;;;32.16;49.41
6393;BME280;3229;42.674;23.282;2022-10-26T08:03:41;95271.56;;;31.88;49.65
6393;BME280;3229;42.674;23.282;2022-10-26T08:06:09;95245.09;;;31.40;49.48
6393;BME280;3229;42.674;23.282;2022-10-26T08:08:36;95267.31;;;31.12;49.45
6393;BME280;3229;42.674;23.282;2022-10-26T08:11:04;95271.06;;;30.84;49.57
6393;BME280;3229;42.674;23.282;2022-10-26T08:13:31;95225.03;;;30.26;49.59
6393;BME280;3229;42.674;23.282;2022-10-26T08:16:01;95273.06;;;30.23;49.21
6393;BME280;3229;42.674;23.282;2022-10-26T08:18:29;95233.00;;;29.65;49.68
6393;BME280;3229;42.674;23.282;2022-10-26T08:21:00;95273.84;;;29.63;49.33
6393;BME280;3229;42.674;23.282;2022-10-26T08:23:29;95269.13;;;29.31;49.24
6393;BME280;3229;42.674;23.282;2022-10-26T08:25:57;95268.50;;;29.07;49.96
6393;BME280;3229;42.674;23.282;2022-10-26T08:28:25;95264.84;;;28.80;49.75
6393;BME280;3229;42.674;23.282;2022-10-26T08:30:52;95242.84;;;28.40;50.00
6393;BME280;3229;42.674;23.282;2022-10-26T08:33:19;95262.09;;;28.29;49.67
6393;BME280;3229;42.674;23.282;2022-10-26T08:35:46;95270.63;;;28.08;49.68
6393;BME280;3229;42.674;23.282;2022-10-26T08:38:13;95244.59;;;27.71;50.20
6393;BME280;3229;42.674;23.282;2022-10-26T08:40:42;95268.13;;;27.66;50.25
6393;BME280;3229;42.674;23.282;2022-10-26T08:43:15;95264.25;;;27.45;50.01
6393;BME280;3229;42.674;23.282;2022-10-26T08:45:48;95266.78;;;27.28;50.18
6393;BME280;3229;42.674;23.282;2022-10-26T08:48:19;95256.47;;;27.03;50.25
6393;BME280;3229;42.674;23.282;2022-10-26T08:50:51;95266.25;;;26.96;50.73
6393;BME280;3229;42.674;23.282;2022-10-26T08:53:21;95265.31;;;26.79;50.99
6393;BME280;3229;42.674;23.282;2022-10-26T08:55:54;95261.28;;;26.64;51.42
6393;BME280;3229;42.674;23.282;2022-10-26T08:58:26;95266.94;;;26.49;51.29
6393;BME280;3229;42.674;23.282;2022-10-26T09:00:53;95270.84;;;26.40;51.62
6393;BME280;3229;42.674;23.282;2022-10-26T09:03:20;95260.41;;;26.22;51.18
6393;BME280;3229;42.674;23.282;2022-10-26T09:06:12;95278.16;;;26.20;51.55
6393;BME280;3229;42.674;23.282;2022-10-26T09:08:55;95279.72;;;26.09;51.45
6393;BME280;3229;42.674;23.282;2022-10-26T09:11:35;95277.25;;;25.96;51.62
6393;BME280;3229;42.674;23.282;2022-10-26T09:14:12;95249.44;;;25.76;51.76
6393;BME280;3229;42.674;23.282;2022-10-26T09:16:50;95270.41;;;25.76;51.60
6393;BME280;3229;42.674;23.282;2022-10-26T09:19:31;95205.34;;;25.30;51.92
6393;BME280;3229;42.674;23.282;2022-10-26T09:22:06;95261.47;;;25.59;51.84
6393;BME280;3229;42.674;23.282;2022-10-26T09:24:38;95270.22;;;25.53;52.34
6393;BME280;3229;42.674;23.282;2022-10-26T09:27:13;95235.41;;;25.27;52.10
6393;BME280;3229;42.674;23.282;2022-10-26T09:29:45;95267.72;;;25.40;52.40
6393;BME280;3229;42.674;23.282;2022-10-26T09:32:16;95217.88;;;25.03;52.48
6393;BME280;3229;42.674;23.282;2022-10-26T09:34:47;95256.34;;;25.27;52.88
6393;BME280;3229;42.674;23.282;2022-10-26T09:37:18;95252.56;;;25.23;52.70
6393;BME280;3229;42.674;23.282;2022-10-26T09:39:51;95230.16;;;25.02;52.74
6393;BME280;3229;42.674;23.282;2022-10-26T09:42:25;95258.06;;;25.15;53.09
6393;BME280;3229;42.674;23.282;2022-10-26T09:44:57;95251.66;;;25.11;53.26
6393;BME280;3229;42.674;23.282;2022-10-26T09:47:33;95251.09;;;25.09;53.40
6393;BME280;3229;42.674;23.282;2022-10-26T09:50:17;95248.63;;;25.08;53.01
6393;BME280;3229;42.674;23.282;2022-10-26T09:52:46;95251.25;;;25.08;52.87
6393;BME280;3229;42.674;23.282;2022-10-26T09:55:13;95250.44;;;25.07;52.93
6393;BME280;3229;42.674;23.282;2022-10-26T09:57:44;95226.22;;;24.93;52.87
6393;BME280;3229;42.674;23.282;2022-10-26T10:00:13;95243.84;;;25.05;52.69
6393;BME280;3229;42.674;23.282;2022-10-26T10:02:41;95241.41;;;25.03;52.48
6393;BME280;3229;42.674;23.282;2022-10-26T10:05:24;95227.97;;;24.99;52.63
6393;BME280;3229;42.674;23.282;2022-10-26T10:07:51;95222.94;;;24.98;52.73
6393;BME280;3229;42.674;23.282;2022-10-26T10:10:19;95227.16;;;24.99;53.17
6393;BME280;3229;42.674;23.282;2022-10-26T10:12:49;95222.38;;;24.96;52.79
6393;BME280;3229;42.674;23.282;2022-10-26T10:15:20;95223.53;;;25.00;53.19
6393;BME280;3229;42.674;23.282;2022-10-26T10:17:50;95213.69;;;24.95;53.20
6393;BME280;3229;42.674;23.282;2022-10-26T10:20:20;95221.72;;;25.00;52.67
6393;BME280;3229;42.674;23.282;2022-10-26T10:22:54;95223.31;;;25.01;53.05
6393;BME280;3229;42.674;23.282;2022-10-26T10:25:30;95204.66;;;24.91;52.92
6393;BME280;3229;42.674;23.282;2022-10-26T10:27:58;95220.94;;;25.00;52.66
6393;BME280;3229;42.674;23.282;2022-10-26T10:30:28;95219.31;;;24.99;52.78
6393;BME280;3229;42.674;23.282;2022-10-26T10:33:06;95169.81;;;24.72;53.13
6393;BME280;3229;42.674;23.282;2022-10-26T10:35:33;95190.84;;;24.84;53.09
6393;BME280;3229;42.674;23.282;2022-10-26T10:38:00;95213.28;;;24.98;53.17
6393;BME280;3229;42.674;23.282;2022-10-26T10:40:29;95206.44;;;24.97;52.87
6393;BME280;3229;42.674;23.282;2022-10-26T10:43:11;95208.28;;;24.97;52.65
6393;BME280;3229;42.674;23.282;2022-10-26T10:45:39;95189.63;;;24.87;52.91
6393;BME280;3229;42.674;23.282;2022-10-26T10:48:14;95195.03;;;24.92;52.87
6393;BME280;3229;42.674;23.282;2022-10-26T10:50:51;95203.22;;;24.95;52.72
6393;BME280;3229;42.674;23.282;2022-10-26T10:53:20;95149.78;;;24.60;52.52
6393;BME280;3229;42.674;23.282;2022-10-26T10:56:02;95194.59;;;24.95;52.26
6393;BME280;3229;42.674;23.282;2022-10-26T10:58:40;95191.81;;;24.90;52.46
6393;BME280;3229;42.674;23.282;2022-10-26T11:01:13;95180.97;;;24.86;52.63
6393;BME280;3229;42.674;23.282;2022-10-26T11:04:01;95177.13;;;24.89;52.74
6393;BME280;3229;42.674;23.282;2022-10-26T11:06:35;95154.34;;;24.71;52.72
6393;BME280;3229;42.674;23.282;2022-10-26T11:09:06;95180.13;;;24.92;52.91
6393;BME280;3229;42.674;23.282;2022-10-26T11:11:38;95180.31;;;24.91;52.95
6393;BME280;3229;42.674;23.282;2022-10-26T11:14:13;95175.88;;;24.91;53.06
6393;BME280;3229;42.674;23.282;2022-10-26T11:16:43;95188.16;;;24.91;52.70
6393;BME280;3229;42.674;23.282;2022-10-26T11:19:18;95170.66;;;24.91;52.72
6393;BME280;3229;42.674;23.282;2022-10-26T11:21:49;95182.75;;;24.92;53.27
6393;BME280;3229;42.674;23.282;2022-10-26T11:24:22;95181.94;;;24.92;52.96
6393;BME280;3229;42.674;23.282;2022-10-26T11:26:56;95153.31;;;24.72;52.91
6393;BME280;3229;42.674;23.282;2022-10-26T11:29:39;95177.13;;;24.89;52.70
6393;BME280;3229;42.674;23.282;2022-10-26T11:32:14;95179.09;;;24.93;52.40
6393;BME280;3229;42.674;23.282;2022-10-26T11:34:46;95139.69;;;24.70;52.43
6393;BME280;3229;42.674;23.282;2022-10-26T11:37:21;95169.84;;;24.91;52.00
6393;BME280;3229;42.674;23.282;2022-10-26T11:40:01;95126.88;;;24.62;52.59
6393;BME280;3229;42.674;23.282;2022-10-26T11:42:34;95159.09;;;24.81;52.19
6393;BME280;3229;42.674;23.282;2022-10-26T11:45:10;95153.06;;;24.80;52.13
6393;BME280;3229;42.674;23.282;2022-10-26T11:47:42;95134.44;;;24.70;52.32
6393;BME280;3229;42.674;23.282;2022-10-26T11:50:16;95150.06;;;24.76;52.21
6393;BME280;3229;42.674;23.282;2022-10-26T11:52:48;95155.66;;;24.80;52.16
6393;BME280;3229;42.674;23.282;2022-10-26T11:55:17;95142.88;;;24.72;52.41
6393;BME280;3229;42.674;23.282;2022-10-26T11:57:46;95107.41;;;24.51;52.59
6393;BME280;3229;42.674;23.282;2022-10-26T12:00:17;95142.88;;;24.72;52.49
6393;BME280;3229;42.674;23.282;2022-10-26T12:02:47;95149.91;;;24.71;52.58
6393;BME280;3229;42.674;23.282;2022-10-26T12:05:19;95149.66;;;24.80;52.23
6393;BME280;3229;42.674;23.282;2022-10-26T12:07:50;95137.47;;;24.67;52.57
6393;BME280;3229;42.674;23.282;2022-10-26T12:10:24;95136.03;;;24.71;52.25
6393;BME280;3229;42.674;23.282;2022-10-26T12:13:00;95150.06;;;24.76;52.46
6393;BME280;3229;42.674;23.282;2022-10-26T12:15:39;95150.28;;;24.75;51.69
6393;BME280;3229;42.674;23.282;2022-10-26T12:18:13;95124.44;;;24.60;52.06
6393;BME280;3229;42.674;23.282;2022-10-26T12:20:55;95151.28;;;24.74;51.75
6393;BME280;3229;42.674;23.282;2022-10-26T12:23:27;95137.91;;;24.64;52.15
6393;BME280;3229;42.674;23.282;2022-10-26T12:29:29;95138.91;;;24.63;52.45
6393;BME280;3229;42.674;23.282;2022-10-26T12:31:57;95145.97;;;24.62;51.67
6393;BME280;3229;42.674;23.282;2022-10-26T12:34:59;95146.16;;;24.61;51.88
6393;BME280;3229;42.674;23.282;2022-10-26T12:37:31;95149.41;;;24.56;52.60
6393;BME280;3229;42.674;23.282;2022-10-26T12:43:33;95141.69;;;24.43;52.05
6393;BME280;3229;42.674;23.282;2022-10-26T12:55:29;95149.59;;;24.29;52.54
6393;BME280;3229;42.674;23.282;2022-10-26T12:58:16;95156.06;;;24.27;52.58
6393;BME280;3229;42.674;23.282;2022-10-26T13:00:54;95150.22;;;24.25;52.89
6393;BME280;3229;42.674;23.282;2022-10-26T13:03:37;95149.25;;;24.19;52.78
6393;BME280;3229;42.674;23.282;2022-10-26T13:06:54;95159.50;;;24.21;52.80
6393;BME280;3229;42.674;23.282;2022-10-26T13:09:29;95152.66;;;24.20;52.52
6393;BME280;3229;42.674;23.282;2022-10-26T13:12:01;95121.00;;;24.03;52.88
6393;BME280;3229;42.674;23.282;2022-10-26T13:14:32;95121.25;;;23.95;52.70
6393;BME280;3229;42.674;23.282;2022-10-26T13:17:00;95153.31;;;24.15;52.75
6393;BME280;3229;42.674;23.282;2022-10-26T13:19:31;95158.13;;;24.18;52.57
6393;BME280;3229;42.674;23.282;2022-10-26T13:22:02;95164.34;;;24.17;52.63
6393;BME280;3229;42.674;23.282;2022-10-26T13:24:31;95148.72;;;24.11;52.32
6393;BME280;3229;42.674;23.282;2022-10-26T13:27:23;95157.94;;;24.13;52.35
6393;BME280;3229;42.674;23.282;2022-10-26T13:30:15;95163.38;;;24.12;52.35
6393;BME280;3229;42.674;23.282;2022-10-26T13:32:48;95157.97;;;24.07;52.44
6393;BME280;3229;42.674;23.282;2022-10-26T13:35:16;95139.38;;;23.90;52.99
6393;BME280;3229;42.674;23.282;2022-10-26T13:37:47;95151.59;;;23.96;52.78
6393;BME280;3229;42.674;23.282;2022-10-26T13:40:19;95145.81;;;23.87;52.62
6393;BME280;3229;42.674;23.282;2022-10-26T13:42:48;95153.66;;;23.87;52.80
6393;BME280;3229;42.674;23.282;2022-10-26T13:45:18;95136.66;;;23.71;52.65
6393;BME280;3229;42.674;23.282;2022-10-26T13:47:50;95164.94;;;23.88;52.17
6393;BME280;3229;42.674;23.282;2022-10-26T13:50:23;95168.97;;;23.84;52.64